sensor_id;sensor_type;location;lat;lon;timestamp;pressure;altitude;pressure_sealevel;temperature;humidity
62057;BME280;48016;50.284;18.860;2023-01-19T00:00:02;96747.96;;;0.34;86.65
62057;BME280;48016;50.284;18.860;2023-01-19T00:02:29;96747.21;;;0.36;86.81
62057;BME280;48016;50.284;18.860;2023-01-19T00:04:56;96747.97;;;0.39;86.90
62057;BME280;48016;50.284;18.860;2023-01-19T00:07:23;96748.71;;;0.39;86.80
62057;BME280;48016;50.284;18.860;2023-01-19T00:09:50;96751.34;;;0.40;86.98
62057;BME280;48016;50.284;18.860;2023-01-19T00:12:17;96752.20;;;0.40;86.75
62057;BME280;48016;50.284;18.860;2023-01-19T00:14:44;96753.95;;;0.38;86.52
62057;BME280;48016;50.284;18.860;2023-01-19T00:17:10;96756.14;;;0.36;86.50
62057;BME280;48016;50.284;18.860;2023-01-19T00:19:37;96758.27;;;0.35;86.51
62057;BME280;48016;50.284;18.860;2023-01-19T00:22:04;96753.70;;;0.36;86.61
62057;BME280;48016;50.284;18.860;2023-01-19T00:24:34;96752.79;;;0.38;86.58
62057;BME280;48016;50.284;18.860;2023-01-19T00:27:00;96755.69;;;0.39;86.64
62057;BME280;48016;50.284;18.860;2023-01-19T00:29:29;96758.59;;;0.40;86.38
62057;BME280;48016;50.284;18.860;2023-01-19T00:32:01;96758.88;;;0.40;86.66
62057;BME280;48016;50.284;18.860;2023-01-19T00:34:28;96761.17;;;0.37;86.40
62057;BME280;48016;50.284;18.860;2023-01-19T00:37:05;96763.83;;;0.35;86.47
62057;BME280;48016;50.284;18.860;2023-01-19T00:39:32;96763.42;;;0.32;86.55
62057;BME280;48016;50.284;18.860;2023-01-19T00:41:59;96767.36;;;0.28;86.74
62057;BME280;48016;50.284;18.860;2023-01-19T00:44:44;96766.73;;;0.23;86.34
62057;BME280;48016;50.284;18.860;2023-01-19T00:47:11;96765.80;;;0.17;86.30
62057;BME280;48016;50.284;18.860;2023-01-19T00:49:38;96763.55;;;0.12;86.39
62057;BME280;48016;50.284;18.860;2023-01-19T00:52:05;96761.81;;;0.10;86.34
62057;BME280;48016;50.284;18.860;2023-01-19T00:54:32;96758.70;;;0.10;86.39
62057;BME280;48016;50.284;18.860;2023-01-19T00:56:58;96760.89;;;0.10;86.47
62057;BME280;48016;50.284;18.860;2023-01-19T00:59:25;96758.08;;;0.12;86.55
62057;BME280;48016;50.284;18.860;2023-01-19T01:01:52;96755.73;;;0.16;86.64
62057;BME280;48016;50.284;18.860;2023-01-19T01:04:18;96748.35;;;0.20;86.80
62057;BME280;48016;50.284;18.860;2023-01-19T01:06:45;96749.71;;;0.24;86.77
62057;BME280;48016;50.284;18.860;2023-01-19T01:09:12;96743.32;;;0.25;86.86
62057;BME280;48016;50.284;18.860;2023-01-19T01:11:41;96739.38;;;0.27;86.66
62057;BME280;48016;50.284;18.860;2023-01-19T01:14:09;96737.30;;;0.27;86.67
62057;BME280;48016;50.284;18.860;2023-01-19T01:16:37;96730.08;;;0.27;86.72
62057;BME280;48016;50.284;18.860;2023-01-19T01:19:03;96731.58;;;0.30;86.48
62057;BME280;48016;50.284;18.860;2023-01-19T01:21:30;96728.73;;;0.33;86.57
62057;BME280;48016;50.284;18.860;2023-01-19T01:23:57;96730.57;;;0.36;86.68
62057;BME280;48016;50.284;18.860;2023-01-19T01:26:24;96726.86;;;0.39;86.59
62057;BME280;48016;50.284;18.860;2023-01-19T01:28:50;96729.56;;;0.45;86.60
62057;BME280;48016;50.284;18.860;2023-01-19T01:31:17;96727.00;;;0.49;86.60
62057;BME280;48016;50.284;18.860;2023-01-19T01:33:44;96740.62;;;0.52;86.69
62057;BME280;48016;50.284;18.860;2023-01-19T01:36:11;96749.66;;;0.52;86.45
62057;BME280;48016;50.284;18.860;2023-01-19T01:38:39;96756.52;;;0.50;86.36
62057;BME280;48016;50.284;18.860;2023-01-19T01:41:07;96763.55;;;0.41;86.37
62057;BME280;48016;50.284;18.860;2023-01-19T01:44:00;96765.25;;;0.35;86.26
62057;BME280;48016;50.284;18.860;2023-01-19T01:46:33;96770.27;;;0.31;86.29
62057;BME280;48016;50.284;18.860;2023-01-19T01:49:13;96766.14;;;0.28;86.21
62057;BME280;48016;50.284;18.860;2023-01-19T01:51:47;96763.95;;;0.27;86.51
62057;BME280;48016;50.284;18.860;2023-01-19T01:56:49;96768.23;;;0.28;86.37
62057;BME280;48016;50.284;18.860;2023-01-19T01:59:21;96767.65;;;0.29;86.62
62057;BME280;48016;50.284;18.860;2023-01-19T02:01:53;96768.02;;;0.31;86.71
62057;BME280;48016;50.284;18.860;2023-01-19T02:04:43;96763.80;;;0.34;86.44
62057;BME280;48016;50.284;18.860;2023-01-19T02:07:16;96763.73;;;0.36;86.59
62057;BME280;48016;50.284;18.860;2023-01-19T02:10:04;96764.45;;;0.34;86.51
62057;BME280;48016;50.284;18.860;2023-01-19T02:12:50;96766.77;;;0.32;86.52
62057;BME280;48016;50.284;18.860;2023-01-19T02:15:35;96769.19;;;0.26;86.16
62057;BME280;48016;50.284;18.860;2023-01-19T02:18:02;96774.27;;;0.20;86.25
62057;BME280;48016;50.284;18.860;2023-01-19T02:20:30;96774.48;;;0.14;86.40
62057;BME280;48016;50.284;18.860;2023-01-19T02:23:01;96779.67;;;0.11;86.39
62057;BME280;48016;50.284;18.860;2023-01-19T02:25:29;96781.59;;;0.11;86.63
62057;BME280;48016;50.284;18.860;2023-01-19T02:27:56;96781.85;;;0.13;86.70
62057;BME280;48016;50.284;18.860;2023-01-19T02:30:23;96778.91;;;0.12;86.81
62057;BME280;48016;50.284;18.860;2023-01-19T02:32:49;96777.27;;;0.09;86.84
62057;BME280;48016;50.284;18.860;2023-01-19T02:35:16;96779.05;;;0.04;86.86
62057;BME280;48016;50.284;18.860;2023-01-19T02:37:43;96779.38;;;-0.01;86.89
62057;BME280;48016;50.284;18.860;2023-01-19T02:40:13;96782.80;;;-0.04;86.90
62057;BME280;48016;50.284;18.860;2023-01-19T02:42:44;96784.23;;;-0.01;86.80
62057;BME280;48016;50.284;18.860;2023-01-19T02:45:13;96781.52;;;0.00;86.90
62057;BME280;48016;50.284;18.860;2023-01-19T02:47:44;96782.47;;;0.03;86.85
62057;BME280;48016;50.284;18.860;2023-01-19T02:53:09;96788.08;;;-0.01;86.81
62057;BME280;48016;50.284;18.860;2023-01-19T02:55:41;96788.38;;;-0.06;87.02
62057;BME280;48016;50.284;18.860;2023-01-19T02:58:20;96792.80;;;-0.06;87.08
62057;BME280;48016;50.284;18.860;2023-01-19T03:01:15;96797.00;;;-0.02;87.04
62057;BME280;48016;50.284;18.860;2023-01-19T03:04:16;96789.42;;;-0.00;87.01
62057;BME280;48016;50.284;18.860;2023-01-19T03:06:52;96791.59;;;0.02;86.97
62057;BME280;48016;50.284;18.860;2023-01-19T03:10:04;96792.27;;;-0.03;86.98
62057;BME280;48016;50.284;18.860;2023-01-19T03:12:39;96790.14;;;-0.09;86.88
62057;BME280;48016;50.284;18.860;2023-01-19T03:15:39;96790.39;;;-0.16;87.19
62057;BME280;48016;50.284;18.860;2023-01-19T03:18:09;96794.01;;;-0.21;87.30
62057;BME280;48016;50.284;18.860;2023-01-19T03:20:38;96792.48;;;-0.23;87.27
62057;BME280;48016;50.284;18.860;2023-01-19T03:23:09;96789.11;;;-0.24;87.12
62057;BME280;48016;50.284;18.860;2023-01-19T03:25:40;96785.72;;;-0.25;87.03
62057;BME280;48016;50.284;18.860;2023-01-19T03:28:08;96788.72;;;-0.26;87.22
62057;BME280;48016;50.284;18.860;2023-01-19T03:30:39;96790.98;;;-0.26;87.26
62057;BME280;48016;50.284;18.860;2023-01-19T03:33:18;96791.83;;;-0.27;87.30
62057;BME280;48016;50.284;18.860;2023-01-19T03:35:51;96790.39;;;-0.29;87.35
62057;BME280;48016;50.284;18.860;2023-01-19T03:38:24;96797.30;;;-0.30;87.45
62057;BME280;48016;50.284;18.860;2023-01-19T03:40:55;96794.70;;;-0.30;87.32
62057;BME280;48016;50.284;18.860;2023-01-19T03:43:24;96796.23;;;-0.33;87.35
62057;BME280;48016;50.284;18.860;2023-01-19T03:45:52;96808.16;;;-0.32;87.40
62057;BME280;48016;50.284;18.860;2023-01-19T03:48:21;96814.09;;;-0.30;87.51
62057;BME280;48016;50.284;18.860;2023-01-19T03:50:49;96813.30;;;-0.29;87.48
62057;BME280;48016;50.284;18.860;2023-01-19T03:53:17;96809.91;;;-0.28;87.58
62057;BME280;48016;50.284;18.860;2023-01-19T03:55:47;96807.36;;;-0.24;87.47
62057;BME280;48016;50.284;18.860;2023-01-19T03:58:16;96803.27;;;-0.22;87.43
62057;BME280;48016;50.284;18.860;2023-01-19T04:00:42;96808.74;;;-0.22;87.53
62057;BME280;48016;50.284;18.860;2023-01-19T04:03:13;96810.44;;;-0.23;87.56
62057;BME280;48016;50.284;18.860;2023-01-19T04:05:40;96810.86;;;-0.22;87.70
62057;BME280;48016;50.284;18.860;2023-01-19T04:08:07;96812.07;;;-0.21;87.76
62057;BME280;48016;50.284;18.860;2023-01-19T04:10:33;96820.05;;;-0.18;87.54
62057;BME280;48016;50.284;18.860;2023-01-19T04:13:01;96826.73;;;-0.13;87.80
62057;BME280;48016;50.284;18.860;2023-01-19T04:15:28;96823.47;;;-0.07;87.72
62057;BME280;48016;50.284;18.860;2023-01-19T04:17:57;96827.08;;;-0.01;87.61
62057;BME280;48016;50.284;18.860;2023-01-19T04:20:24;96826.19;;;0.02;87.57
62057;BME280;48016;50.284;18.860;2023-01-19T04:22:53;96822.80;;;0.04;87.76
62057;BME280;48016;50.284;18.860;2023-01-19T04:25:21;96829.46;;;0.08;87.63
62057;BME280;48016;50.284;18.860;2023-01-19T04:27:53;96833.26;;;0.09;87.43
62057;BME280;48016;50.284;18.860;2023-01-19T04:30:20;96836.36;;;0.11;87.48
62057;BME280;48016;50.284;18.860;2023-01-19T04:32:48;96841.56;;;0.11;87.39
62057;BME280;48016;50.284;18.860;2023-01-19T04:35:14;96841.58;;;0.10;87.28
62057;BME280;48016;50.284;18.860;2023-01-19T04:37:42;96840.27;;;0.09;87.26
62057;BME280;48016;50.284;18.860;2023-01-19T04:40:11;96845.48;;;0.09;87.60
62057;BME280;48016;50.284;18.860;2023-01-19T04:42:38;96851.61;;;0.12;87.46
62057;BME280;48016;50.284;18.860;2023-01-19T04:45:08;96857.77;;;0.15;87.33
62057;BME280;48016;50.284;18.860;2023-01-19T04:47:35;96860.64;;;0.15;87.26
62057;BME280;48016;50.284;18.860;2023-01-19T04:50:03;96852.94;;;0.17;87.29
62057;BME280;48016;50.284;18.860;2023-01-19T04:52:31;96850.02;;;0.18;87.41
62057;BME280;48016;50.284;18.860;2023-01-19T04:55:03;96857.88;;;0.17;87.43
62057;BME280;48016;50.284;18.860;2023-01-19T04:57:30;96865.41;;;0.20;87.70
62057;BME280;48016;50.284;18.860;2023-01-19T04:59:57;96866.38;;;0.21;87.53
62057;BME280;48016;50.284;18.860;2023-01-19T05:02:24;96871.50;;;0.20;87.41
62057;BME280;48016;50.284;18.860;2023-01-19T05:04:51;96879.70;;;0.18;87.27
62057;BME280;48016;50.284;18.860;2023-01-19T05:07:18;96879.73;;;0.16;87.19
62057;BME280;48016;50.284;18.860;2023-01-19T05:09:45;96880.83;;;0.13;87.16
62057;BME280;48016;50.284;18.860;2023-01-19T05:12:11;96878.01;;;0.13;87.36
62057;BME280;48016;50.284;18.860;2023-01-19T05:14:38;96878.17;;;0.15;87.51
62057;BME280;48016;50.284;18.860;2023-01-19T05:17:05;96875.52;;;0.19;87.50
62057;BME280;48016;50.284;18.860;2023-01-19T05:19:32;96876.08;;;0.20;87.27
62057;BME280;48016;50.284;18.860;2023-01-19T05:21:59;96876.29;;;0.20;87.49
62057;BME280;48016;50.284;18.860;2023-01-19T05:24:27;96876.57;;;0.20;87.48
62057;BME280;48016;50.284;18.860;2023-01-19T05:26:53;96875.46;;;0.21;87.44
62057;BME280;48016;50.284;18.860;2023-01-19T05:29:21;96869.48;;;0.21;87.54
62057;BME280;48016;50.284;18.860;2023-01-19T05:31:48;96867.87;;;0.23;87.43
62057;BME280;48016;50.284;18.860;2023-01-19T05:34:14;96865.12;;;0.24;87.27
62057;BME280;48016;50.284;18.860;2023-01-19T05:36:41;96861.86;;;0.25;87.20
62057;BME280;48016;50.284;18.860;2023-01-19T05:39:08;96857.81;;;0.27;86.94
62057;BME280;48016;50.284;18.860;2023-01-19T05:41:35;96858.05;;;0.28;87.04
62057;BME280;48016;50.284;18.860;2023-01-19T05:44:01;96858.39;;;0.28;87.18
62057;BME280;48016;50.284;18.860;2023-01-19T05:46:28;96853.35;;;0.29;87.22
62057;BME280;48016;50.284;18.860;2023-01-19T05:48:55;96847.79;;;0.29;87.14
62057;BME280;48016;50.284;18.860;2023-01-19T05:51:22;96845.30;;;0.30;87.13
62057;BME280;48016;50.284;18.860;2023-01-19T05:53:48;96843.67;;;0.31;86.97
62057;BME280;48016;50.284;18.860;2023-01-19T05:56:15;96847.02;;;0.31;86.88
62057;BME280;48016;50.284;18.860;2023-01-19T05:58:41;96851.99;;;0.30;86.82
62057;BME280;48016;50.284;18.860;2023-01-19T06:01:09;96852.51;;;0.29;86.82
62057;BME280;48016;50.284;18.860;2023-01-19T06:03:36;96855.74;;;0.27;86.77
62057;BME280;48016;50.284;18.860;2023-01-19T06:06:05;96855.66;;;0.28;86.86
62057;BME280;48016;50.284;18.860;2023-01-19T06:08:31;96858.48;;;0.28;86.90
62057;BME280;48016;50.284;18.860;2023-01-19T06:10:58;96855.98;;;0.28;86.73
62057;BME280;48016;50.284;18.860;2023-01-19T06:13:25;96852.70;;;0.29;86.92
62057;BME280;48016;50.284;18.860;2023-01-19T06:15:59;96854.52;;;0.31;86.90
62057;BME280;48016;50.284;18.860;2023-01-19T06:18:27;96859.32;;;0.33;86.81
62057;BME280;48016;50.284;18.860;2023-01-19T06:20:54;96863.45;;;0.32;86.82
62057;BME280;48016;50.284;18.860;2023-01-19T06:23:29;96866.33;;;0.35;86.95
62057;BME280;48016;50.284;18.860;2023-01-19T06:25:57;96869.54;;;0.39;86.80
62057;BME280;48016;50.284;18.860;2023-01-19T06:28:24;96869.95;;;0.42;86.82
62057;BME280;48016;50.284;18.860;2023-01-19T06:30:52;96878.21;;;0.46;86.86
62057;BME280;48016;50.284;18.860;2023-01-19T06:33:19;96891.98;;;0.50;87.00
62057;BME280;48016;50.284;18.860;2023-01-19T06:35:48;96898.80;;;0.52;86.87
62057;BME280;48016;50.284;18.860;2023-01-19T06:38:15;96915.67;;;0.53;86.84
62057;BME280;48016;50.284;18.860;2023-01-19T06:40:54;96919.42;;;0.54;86.90
62057;BME280;48016;50.284;18.860;2023-01-19T06:43:24;96920.38;;;0.53;86.79
62057;BME280;48016;50.284;18.860;2023-01-19T06:45:51;96922.02;;;0.53;86.51
62057;BME280;48016;50.284;18.860;2023-01-19T06:48:18;96927.02;;;0.51;86.71
62057;BME280;48016;50.284;18.860;2023-01-19T06:50:45;96930.41;;;0.51;86.51
62057;BME280;48016;50.284;18.860;2023-01-19T06:53:13;96938.66;;;0.49;86.51
62057;BME280;48016;50.284;18.860;2023-01-19T06:55:42;96948.33;;;0.49;86.55
62057;BME280;48016;50.284;18.860;2023-01-19T06:58:10;96947.84;;;0.48;86.68
62057;BME280;48016;50.284;18.860;2023-01-19T07:00:37;96948.83;;;0.44;86.73
62057;BME280;48016;50.284;18.860;2023-01-19T07:03:07;96951.99;;;0.39;86.70
62057;BME280;48016;50.284;18.860;2023-01-19T07:05:34;96956.51;;;0.35;86.55
62057;BME280;48016;50.284;18.860;2023-01-19T07:08:01;96962.11;;;0.31;86.46
62057;BME280;48016;50.284;18.860;2023-01-19T07:10:28;96970.22;;;0.27;86.50
62057;BME280;48016;50.284;18.860;2023-01-19T07:12:56;96978.36;;;0.26;86.38
62057;BME280;48016;50.284;18.860;2023-01-19T07:15:23;96976.23;;;0.22;86.49
62057;BME280;48016;50.284;18.860;2023-01-19T07:17:50;96982.42;;;0.17;86.63
62057;BME280;48016;50.284;18.860;2023-01-19T07:20:17;96981.42;;;0.14;86.97
62057;BME280;48016;50.284;18.860;2023-01-19T07:22:45;96986.90;;;0.12;86.79
62057;BME280;48016;50.284;18.860;2023-01-19T07:25:12;96987.95;;;0.10;86.93
62057;BME280;48016;50.284;18.860;2023-01-19T07:27:39;96992.54;;;0.09;86.84
62057;BME280;48016;50.284;18.860;2023-01-19T07:30:07;96999.42;;;0.07;86.84
62057;BME280;48016;50.284;18.860;2023-01-19T07:32:34;97004.48;;;0.03;86.57
62057;BME280;48016;50.284;18.860;2023-01-19T07:35:01;97009.05;;;0.01;86.67
62057;BME280;48016;50.284;18.860;2023-01-19T07:37:28;97006.00;;;0.00;86.56
62057;BME280;48016;50.284;18.860;2023-01-19T07:39:55;97009.30;;;-0.01;86.86
62057;BME280;48016;50.284;18.860;2023-01-19T07:42:21;97008.77;;;0.01;87.07
62057;BME280;48016;50.284;18.860;2023-01-19T07:44:48;97009.14;;;0.03;87.07
62057;BME280;48016;50.284;18.860;2023-01-19T07:47:15;97006.85;;;0.04;87.17
62057;BME280;48016;50.284;18.860;2023-01-19T07:49:42;97004.98;;;0.04;87.13
62057;BME280;48016;50.284;18.860;2023-01-19T07:52:08;96996.94;;;0.05;87.24
62057;BME280;48016;50.284;18.860;2023-01-19T07:54:36;96990.61;;;0.05;87.11
62057;BME280;48016;50.284;18.860;2023-01-19T07:57:03;96987.80;;;0.04;87.01
62057;BME280;48016;50.284;18.860;2023-01-19T07:59:30;96999.71;;;0.03;86.81
62057;BME280;48016;50.284;18.860;2023-01-19T08:01:58;96996.87;;;0.05;86.87
62057;BME280;48016;50.284;18.860;2023-01-19T08:04:26;96998.41;;;0.06;87.03
62057;BME280;48016;50.284;18.860;2023-01-19T08:06:54;97005.88;;;0.11;87.18
62057;BME280;48016;50.284;18.860;2023-01-19T08:09:21;97015.22;;;0.17;87.18
62057;BME280;48016;50.284;18.860;2023-01-19T08:11:49;97024.45;;;0.22;87.29
62057;BME280;48016;50.284;18.860;2023-01-19T08:14:16;97028.30;;;0.24;87.34
62057;BME280;48016;50.284;18.860;2023-01-19T08:16:42;97034.33;;;0.26;87.24
62057;BME280;48016;50.284;18.860;2023-01-19T08:19:09;97034.54;;;0.29;87.23
62057;BME280;48016;50.284;18.860;2023-01-19T08:21:36;97037.23;;;0.30;87.19
62057;BME280;48016;50.284;18.860;2023-01-19T08:24:04;97035.09;;;0.31;87.14
62057;BME280;48016;50.284;18.860;2023-01-19T08:26:33;97033.59;;;0.33;87.03
62057;BME280;48016;50.284;18.860;2023-01-19T08:29:03;97037.05;;;0.34;86.85
62057;BME280;48016;50.284;18.860;2023-01-19T08:31:30;97035.29;;;0.34;86.89
62057;BME280;48016;50.284;18.860;2023-01-19T08:33:57;97026.14;;;0.34;87.00
62057;BME280;48016;50.284;18.860;2023-01-19T08:36:24;97018.45;;;0.33;87.06
62057;BME280;48016;50.284;18.860;2023-01-19T08:38:51;97014.76;;;0.32;87.11
62057;BME280;48016;50.284;18.860;2023-01-19T08:41:18;97014.94;;;0.33;87.05
62057;BME280;48016;50.284;18.860;2023-01-19T08:43:45;97015.48;;;0.34;86.98
62057;BME280;48016;50.284;18.860;2023-01-19T08:46:13;97027.65;;;0.35;86.92
62057;BME280;48016;50.284;18.860;2023-01-19T08:48:46;97024.64;;;0.35;86.81
62057;BME280;48016;50.284;18.860;2023-01-19T08:51:16;97022.47;;;0.36;86.37
62057;BME280;48016;50.284;18.860;2023-01-19T08:53:43;97033.08;;;0.33;86.41
62057;BME280;48016;50.284;18.860;2023-01-19T08:56:10;97035.99;;;0.33;86.49
62057;BME280;48016;50.284;18.860;2023-01-19T08:58:42;97035.61;;;0.31;86.71
62057;BME280;48016;50.284;18.860;2023-01-19T09:01:11;97046.89;;;0.33;86.97
62057;BME280;48016;50.284;18.860;2023-01-19T09:03:42;97062.42;;;0.37;86.78
62057;BME280;48016;50.284;18.860;2023-01-19T09:06:11;97063.48;;;0.38;86.93
62057;BME280;48016;50.284;18.860;2023-01-19T09:08:39;97058.42;;;0.36;86.78
62057;BME280;48016;50.284;18.860;2023-01-19T09:11:11;97067.85;;;0.30;86.71
62057;BME280;48016;50.284;18.860;2023-01-19T09:13:38;97076.91;;;0.25;86.41
62057;BME280;48016;50.284;18.860;2023-01-19T09:16:06;97076.02;;;0.19;86.32
62057;BME280;48016;50.284;18.860;2023-01-19T09:18:34;97073.25;;;0.13;86.18
62057;BME280;48016;50.284;18.860;2023-01-19T09:21:01;97074.67;;;0.09;86.27
62057;BME280;48016;50.284;18.860;2023-01-19T09:23:29;97079.71;;;0.08;86.54
62057;BME280;48016;50.284;18.860;2023-01-19T09:25:59;97082.71;;;0.05;86.61
62057;BME280;48016;50.284;18.860;2023-01-19T09:28:27;97091.45;;;0.07;86.86
62057;BME280;48016;50.284;18.860;2023-01-19T09:30:55;97097.57;;;0.09;86.69
62057;BME280;48016;50.284;18.860;2023-01-19T09:33:22;97093.50;;;0.10;86.83
62057;BME280;48016;50.284;18.860;2023-01-19T09:35:50;97091.95;;;0.14;87.03
62057;BME280;48016;50.284;18.860;2023-01-19T09:38:18;97086.23;;;0.14;86.77
62057;BME280;48016;50.284;18.860;2023-01-19T09:40:54;97082.13;;;0.12;86.88
62057;BME280;48016;50.284;18.860;2023-01-19T09:46:00;97072.77;;;0.12;86.50
62057;BME280;48016;50.284;18.860;2023-01-19T09:48:54;97074.41;;;0.10;86.52
62057;BME280;48016;50.284;18.860;2023-01-19T09:51:36;97075.85;;;0.08;86.76
62057;BME280;48016;50.284;18.860;2023-01-19T09:56:38;97066.95;;;0.13;87.09
62057;BME280;48016;50.284;18.860;2023-01-19T09:59:25;97056.71;;;0.13;87.00
62057;BME280;48016;50.284;18.860;2023-01-19T10:04:59;97035.16;;;0.15;87.13
62057;BME280;48016;50.284;18.860;2023-01-19T10:10:11;97038.43;;;0.15;86.84
62057;BME280;48016;50.284;18.860;2023-01-19T10:12:47;97042.20;;;0.13;86.73
62057;BME280;48016;50.284;18.860;2023-01-19T10:21:18;97043.30;;;0.13;87.36
62057;BME280;48016;50.284;18.860;2023-01-19T10:26:33;97039.65;;;0.20;87.21
62057;BME280;48016;50.284;18.860;2023-01-19T10:29:32;97029.24;;;0.17;87.23
62057;BME280;48016;50.284;18.860;2023-01-19T10:32:32;97025.92;;;0.14;86.93
62057;BME280;48016;50.284;18.860;2023-01-19T10:35:16;97028.04;;;0.16;87.15
62057;BME280;48016;50.284;18.860;2023-01-19T10:37:47;97018.48;;;0.18;87.10
62057;BME280;48016;50.284;18.860;2023-01-19T10:40:33;97015.38;;;0.18;87.15
62057;BME280;48016;50.284;18.860;2023-01-19T10:43:35;97016.53;;;0.17;87.27
62057;BME280;48016;50.284;18.860;2023-01-19T10:46:21;97016.13;;;0.17;87.34
62057;BME280;48016;50.284;18.860;2023-01-19T10:48:51;97017.17;;;0.18;87.44
62057;BME280;48016;50.284;18.860;2023-01-19T10:51:19;97019.91;;;0.22;87.62
62057;BME280;48016;50.284;18.860;2023-01-19T10:53:58;97018.96;;;0.27;87.53
62057;BME280;48016;50.284;18.860;2023-01-19T10:56:34;97021.17;;;0.31;87.46
62057;BME280;48016;50.284;18.860;2023-01-19T10:59:04;97023.92;;;0.35;87.31
62057;BME280;48016;50.284;18.860;2023-01-19T11:01:32;97021.84;;;0.38;87.17
62057;BME280;48016;50.284;18.860;2023-01-19T11:04:21;97023.16;;;0.41;87.22
62057;BME280;48016;50.284;18.860;2023-01-19T11:07:12;97022.62;;;0.41;87.05
62057;BME280;48016;50.284;18.860;2023-01-19T11:09:39;97021.34;;;0.39;87.20
62057;BME280;48016;50.284;18.860;2023-01-19T11:12:15;97019.02;;;0.36;87.09
62057;BME280;48016;50.284;18.860;2023-01-19T11:14:42;97015.45;;;0.36;87.24
62057;BME280;48016;50.284;18.860;2023-01-19T11:17:23;97008.98;;;0.32;86.94
62057;BME280;48016;50.284;18.860;2023-01-19T11:19:57;97001.33;;;0.26;86.72
62057;BME280;48016;50.284;18.860;2023-01-19T11:22:31;97001.05;;;0.19;86.68
62057;BME280;48016;50.284;18.860;2023-01-19T11:25:01;96997.19;;;0.13;86.74
62057;BME280;48016;50.284;18.860;2023-01-19T11:27:30;96993.95;;;0.14;86.84
62057;BME280;48016;50.284;18.860;2023-01-19T11:30:17;96997.26;;;0.15;86.89
62057;BME280;48016;50.284;18.860;2023-01-19T11:32:45;97002.09;;;0.21;87.19
62057;BME280;48016;50.284;18.860;2023-01-19T11:35:37;97000.65;;;0.27;87.17
62057;BME280;48016;50.284;18.860;2023-01-19T11:38:12;97003.15;;;0.30;87.34
62057;BME280;48016;50.284;18.860;2023-01-19T11:40:55;97010.04;;;0.32;87.20
62057;BME280;48016;50.284;18.860;2023-01-19T11:43:26;97008.73;;;0.32;87.06
62057;BME280;48016;50.284;18.860;2023-01-19T11:45:55;97005.46;;;0.32;86.86
62057;BME280;48016;50.284;18.860;2023-01-19T11:48:28;97012.34;;;0.34;86.80
62057;BME280;48016;50.284;18.860;2023-01-19T11:51:01;97019.08;;;0.36;86.67
62057;BME280;48016;50.284;18.860;2023-01-19T11:53:33;97012.13;;;0.39;86.88
62057;BME280;48016;50.284;18.860;2023-01-19T11:58:30;97007.15;;;0.38;86.71
62057;BME280;48016;50.284;18.860;2023-01-19T12:04:16;97005.23;;;0.41;86.67
62057;BME280;48016;50.284;18.860;2023-01-19T12:06:51;97003.62;;;0.43;86.64
62057;BME280;48016;50.284;18.860;2023-01-19T12:09:23;97003.23;;;0.48;86.69
62057;BME280;48016;50.284;18.860;2023-01-19T12:11:59;97012.91;;;0.46;86.53
62057;BME280;48016;50.284;18.860;2023-01-19T12:15:05;97014.17;;;0.47;86.51
62057;BME280;48016;50.284;18.860;2023-01-19T12:17:42;97014.44;;;0.45;86.53
62057;BME280;48016;50.284;18.860;2023-01-19T12:20:29;97017.79;;;0.41;86.20
62057;BME280;48016;50.284;18.860;2023-01-19T12:28:33;97018.48;;;0.34;85.93
62057;BME280;48016;50.284;18.860;2023-01-19T12:31:02;97010.85;;;0.33;86.13
62057;BME280;48016;50.284;18.860;2023-01-19T12:39:10;97017.48;;;0.27;86.12
62057;BME280;48016;50.284;18.860;2023-01-19T12:41:40;97017.83;;;0.30;86.16
62057;BME280;48016;50.284;18.860;2023-01-19T12:46:42;97015.65;;;0.32;86.28
62057;BME280;48016;50.284;18.860;2023-01-19T12:49:24;97012.13;;;0.33;86.18
62057;BME280;48016;50.284;18.860;2023-01-19T13:13:27;97024.21;;;0.41;86.00
62057;BME280;48016;50.284;18.860;2023-01-19T13:15:55;97028.02;;;0.40;85.87
62057;BME280;48016;50.284;18.860;2023-01-19T13:18:30;97026.67;;;0.40;85.87
62057;BME280;48016;50.284;18.860;2023-01-19T13:21:03;97027.97;;;0.38;85.85
62057;BME280;48016;50.284;18.860;2023-01-19T13:23:55;97032.84;;;0.38;85.56
62057;BME280;48016;50.284;18.860;2023-01-19T13:26:26;97034.27;;;0.34;85.48
62057;BME280;48016;50.284;18.860;2023-01-19T13:28:56;97040.16;;;0.34;85.59
62057;BME280;48016;50.284;18.860;2023-01-19T13:31:34;97042.34;;;0.33;85.47
62057;BME280;48016;50.284;18.860;2023-01-19T13:34:01;97050.67;;;0.33;85.67
62057;BME280;48016;50.284;18.860;2023-01-19T13:36:37;97055.25;;;0.31;85.63
62057;BME280;48016;50.284;18.860;2023-01-19T13:39:14;97058.58;;;0.29;85.68
62057;BME280;48016;50.284;18.860;2023-01-19T13:41:42;97064.33;;;0.27;85.55
62057;BME280;48016;50.284;18.860;2023-01-19T13:44:19;97060.90;;;0.25;85.64
62057;BME280;48016;50.284;18.860;2023-01-19T13:46:48;97059.30;;;0.21;85.33
62057;BME280;48016;50.284;18.860;2023-01-19T13:49:24;97062.30;;;0.17;85.32
62057;BME280;48016;50.284;18.860;2023-01-19T13:54:29;97060.61;;;0.12;85.25
62057;BME280;48016;50.284;18.860;2023-01-19T13:56:56;97067.74;;;0.11;85.16
62057;BME280;48016;50.284;18.860;2023-01-19T13:59:23;97071.20;;;0.09;85.18
62057;BME280;48016;50.284;18.860;2023-01-19T14:01:49;97072.69;;;0.06;85.45
62057;BME280;48016;50.284;18.860;2023-01-19T14:04:25;97075.50;;;0.06;85.40
62057;BME280;48016;50.284;18.860;2023-01-19T14:06:53;97076.65;;;0.07;85.52
62057;BME280;48016;50.284;18.860;2023-01-19T14:09:22;97080.51;;;0.09;85.57
62057;BME280;48016;50.284;18.860;2023-01-19T14:12:14;97087.77;;;0.12;85.57
62057;BME280;48016;50.284;18.860;2023-01-19T14:14:43;97086.91;;;0.12;85.62
62057;BME280;48016;50.284;18.860;2023-01-19T14:17:24;97087.79;;;0.09;85.55
62057;BME280;48016;50.284;18.860;2023-01-19T14:19:53;97091.73;;;0.08;85.61
62057;BME280;48016;50.284;18.860;2023-01-19T14:22:20;97093.67;;;0.09;85.49
62057;BME280;48016;50.284;18.860;2023-01-19T14:24:48;97091.30;;;0.10;85.55
62057;BME280;48016;50.284;18.860;2023-01-19T14:27:21;97095.20;;;0.13;85.60